createdAt,value
2018-09-05T00:01:06.382Z,71.23
2018-09-05T00:03:35.710Z,71.29
2018-09-05T00:06:06.630Z,72.00
2018-09-05T00:08:36.031Z,71.58
2018-09-05T00:11:06.524Z,71.48
2018-09-05T00:13:35.943Z,71.00
2018-09-05T00:16:06.147Z,71.00
2018-09-05T00:18:35.474Z,71.86
2018-09-05T00:21:06.180Z,70.97
2018-09-05T00:23:35.536Z,71.35
2018-09-05T00:26:06.275Z,71.15
2018-09-05T00:28:35.704Z,71.50
2018-09-05T00:31:06.467Z,71.38
2018-09-05T00:33:35.827Z,71.85
2018-09-05T00:36:06.665Z,70.95
2018-09-05T00:38:36.006Z,71.43
2018-09-05T00:41:06.158Z,71.14
2018-09-05T00:43:36.570Z,71.03
2018-09-05T00:46:06.152Z,71.21
2018-09-05T00:48:35.522Z,71.30
2018-09-05T00:51:06.234Z,71.26
2018-09-05T00:53:35.614Z,71.62
2018-09-05T00:56:06.598Z,71.38
2018-09-05T00:58:36.583Z,70.94
2018-09-05T01:01:07.141Z,70.87
2018-09-05T01:03:36.514Z,71.72
2018-09-05T01:06:06.239Z,71.65
2018-09-05T01:08:36.317Z,71.71
2018-09-05T01:11:07.196Z,71.17
2018-09-05T01:13:36.594Z,71.58
2018-09-05T01:16:06.550Z,71.61
2018-09-05T01:18:36.055Z,70.81
2018-09-05T01:21:06.596Z,71.07
2018-09-05T01:23:35.953Z,71.08
2018-09-05T01:26:06.550Z,71.05
2018-09-05T01:28:35.891Z,70.78
2018-09-05T01:31:06.187Z,70.83
2018-09-05T01:33:36.087Z,70.78
2018-09-05T01:36:12.529Z,71.45
2018-09-05T01:38:42.595Z,71.54
2018-09-05T01:41:13.240Z,71.06
2018-09-05T01:43:43.437Z,71.70
2018-09-05T01:46:12.822Z,71.46
2018-09-05T01:48:42.141Z,71.37
2018-09-05T01:51:11.646Z,71.01
2018-09-05T01:53:40.933Z,71.57
2018-09-05T01:56:10.337Z,71.52
2018-09-05T01:58:39.704Z,71.78
2018-09-05T02:01:09.121Z,71.52
2018-09-05T02:03:38.486Z,71.63
2018-09-05T02:06:07.878Z,71.40
2018-09-05T02:08:37.346Z,71.25
2018-09-05T02:11:07.405Z,72.09
2018-09-05T02:13:37.667Z,71.43
2018-09-05T02:16:08.123Z,71.43
2018-09-05T02:18:37.713Z,71.49
2018-09-05T02:21:07.126Z,71.65
2018-09-05T02:23:36.595Z,71.64
2018-09-05T02:26:06.245Z,71.23
2018-09-05T02:28:35.602Z,71.75
2018-09-05T02:31:08.148Z,71.30
2018-09-05T02:33:37.703Z,71.27
2018-09-05T02:36:09.459Z,71.15
2018-09-05T02:38:39.496Z,71.81
2018-09-05T02:41:08.925Z,71.64
2018-09-05T02:43:44.208Z,71.62
2018-09-05T02:46:13.658Z,71.55
2018-09-05T02:48:43.204Z,71.61
2018-09-05T02:51:12.559Z,72.00
2018-09-05T02:53:42.422Z,71.97
2018-09-05T02:56:11.788Z,71.89
2018-09-05T02:58:41.102Z,71.86
2018-09-05T03:01:11.454Z,72.57
2018-09-05T03:03:40.862Z,72.39
2018-09-05T03:06:10.337Z,72.34
2018-09-05T03:08:39.810Z,72.67
2018-09-05T03:11:10.368Z,72.37
2018-09-05T03:13:39.802Z,72.58
2018-09-05T03:16:09.924Z,72.31
2018-09-05T03:18:40.100Z,72.72
2018-09-05T03:21:09.505Z,72.60
2018-09-05T03:23:38.845Z,72.47
2018-09-05T03:26:08.803Z,72.32
2018-09-05T03:28:38.245Z,72.84
2018-09-05T03:31:07.969Z,72.32
2018-09-05T03:33:37.953Z,72.31
2018-09-05T03:36:07.398Z,72.28
2018-09-05T03:38:36.790Z,72.83
2018-09-05T03:41:06.602Z,71.69
2018-09-05T03:43:35.930Z,71.61
2018-09-05T03:46:06.662Z,71.52
2018-09-05T03:48:36.010Z,72.27
2018-09-05T03:51:06.534Z,72.36
2018-09-05T03:53:36.733Z,72.58
2018-09-05T03:56:06.254Z,72.87
2018-09-05T03:58:35.673Z,72.65
2018-09-05T04:01:06.716Z,72.92
2018-09-05T04:03:36.126Z,72.60
2018-09-05T04:06:06.348Z,72.40
2018-09-05T04:08:35.747Z,72.74
2018-09-05T04:11:06.445Z,72.39
2018-09-05T04:13:35.729Z,72.11
2018-09-05T04:16:06.578Z,72.11
2018-09-05T04:18:35.981Z,72.10
2018-09-05T04:21:05.983Z,71.83
2018-09-05T04:23:39.959Z,72.43
2018-09-05T04:26:09.577Z,71.80
2018-09-05T04:28:38.970Z,71.66
2018-09-05T04:31:09.279Z,71.41
2018-09-05T04:33:38.763Z,72.24
2018-09-05T04:36:08.856Z,71.81
2018-09-05T04:38:38.334Z,72.39
2018-09-05T04:41:07.690Z,72.15
2018-09-05T04:43:37.001Z,72.34
2018-09-05T04:46:06.369Z,71.75
2018-09-05T04:48:35.951Z,72.38
2018-09-05T04:51:06.275Z,72.16
2018-09-05T04:53:35.749Z,72.39
2018-09-05T04:56:07.444Z,72.55
2018-09-05T04:58:36.987Z,72.49
2018-09-05T05:01:06.532Z,72.45
2018-09-05T05:03:35.833Z,72.48
2018-09-05T05:06:06.504Z,73.20
2018-09-05T05:08:35.879Z,72.32
2018-09-05T05:11:06.494Z,72.41
2018-09-05T05:13:38.654Z,72.56
2018-09-05T05:16:08.348Z,73.02
2018-09-05T05:18:37.714Z,72.97
2018-09-05T05:21:06.999Z,72.41
2018-09-05T05:23:36.342Z,72.73
2018-09-05T05:26:06.365Z,72.63
2018-09-05T05:28:35.801Z,72.62
2018-09-05T05:31:06.053Z,72.39
2018-09-05T05:33:36.045Z,72.08
2018-09-05T05:36:07.175Z,71.72
2018-09-05T05:38:37.387Z,72.28
2018-09-05T05:41:07.658Z,72.24
2018-09-05T05:43:37.338Z,71.67
2018-09-05T05:46:07.195Z,72.01
2018-09-05T05:48:37.313Z,71.38
2018-09-05T05:51:07.154Z,72.06
2018-09-05T05:53:36.548Z,72.36
2018-09-05T05:56:06.034Z,72.12
2018-09-05T05:58:35.410Z,72.26
2018-09-05T06:01:06.296Z,71.77
2018-09-05T06:03:36.022Z,71.50
2018-09-05T06:06:08.191Z,71.85
2018-09-05T06:08:37.750Z,71.30
2018-09-05T06:11:07.338Z,71.20
2018-09-05T06:13:36.690Z,71.24
2018-09-05T06:16:06.424Z,71.80
2018-09-05T06:18:35.999Z,71.47
2018-09-05T06:21:06.453Z,71.43
2018-09-05T06:23:35.976Z,71.28
2018-09-05T06:26:06.486Z,71.61
2018-09-05T06:28:35.981Z,71.22
2018-09-05T06:31:06.723Z,71.12
2018-09-05T06:33:35.914Z,70.88
2018-09-05T06:36:09.925Z,71.15
2018-09-05T06:38:39.249Z,70.95
2018-09-05T06:41:08.655Z,70.61
2018-09-05T06:43:38.800Z,71.28
2018-09-05T06:46:08.210Z,70.23
2018-09-05T06:48:37.628Z,70.70
2018-09-05T06:51:08.181Z,69.93
2018-09-05T06:53:38.878Z,70.06
2018-09-05T06:56:08.550Z,69.73
2018-09-05T06:58:38.098Z,70.48
2018-09-05T07:01:07.589Z,69.66
2018-09-05T07:03:36.966Z,69.95
2018-09-05T07:06:07.622Z,69.05
2018-09-05T07:08:37.014Z,69.18
2018-09-05T07:11:06.410Z,69.27
2018-09-05T07:13:36.173Z,68.41
2018-09-05T07:16:06.515Z,68.47
2018-09-05T07:18:36.181Z,68.34
2018-09-05T07:21:07.027Z,67.71
2018-09-05T07:23:37.247Z,68.11
2018-09-05T07:26:06.811Z,67.72
2018-09-05T07:28:36.542Z,67.69
2018-09-05T07:31:06.490Z,67.33
2018-09-05T07:33:35.978Z,67.13
2018-09-05T07:36:06.295Z,66.95
2018-09-05T07:38:35.651Z,65.94
2018-09-05T07:41:12.921Z,65.42
2018-09-05T07:43:42.364Z,65.11
2018-09-05T07:46:11.766Z,65.45
2018-09-05T07:48:41.162Z,64.78
2018-09-05T07:51:11.232Z,64.22
2018-09-05T07:53:40.685Z,63.85
2018-09-05T07:56:10.586Z,64.03
2018-09-05T07:58:40.175Z,62.81
2018-09-05T08:01:10.009Z,63.27
2018-09-05T08:03:39.838Z,62.38
2018-09-05T08:06:09.480Z,62.42
2018-09-05T08:08:38.980Z,61.93
2018-09-05T08:11:08.398Z,62.18
2018-09-05T08:13:37.746Z,62.00
2018-09-05T08:16:07.924Z,61.15
2018-09-05T08:18:37.417Z,60.89
2018-09-05T08:21:07.610Z,60.55
2018-09-05T08:23:36.977Z,59.80
2018-09-05T08:26:06.503Z,60.11
2018-09-05T08:28:35.858Z,59.21
2018-09-05T08:31:06.930Z,59.09
2018-09-05T08:33:38.903Z,58.30
2018-09-05T08:36:08.901Z,58.59
2018-09-05T08:38:37.978Z,58.04
2018-09-05T08:41:11.540Z,57.24
2018-09-05T08:43:41.900Z,56.49
2018-09-05T08:46:11.435Z,55.90
2018-09-05T08:48:40.724Z,56.57
2018-09-05T08:51:10.129Z,55.63
2018-09-05T08:53:40.898Z,55.82
2018-09-05T08:56:11.365Z,54.86
2018-09-05T08:58:40.701Z,55.17
2018-09-05T09:01:10.206Z,54.25
2018-09-05T09:03:39.594Z,54.28
2018-09-05T09:06:09.530Z,53.85
2018-09-05T09:08:39.080Z,53.89
2018-09-05T09:11:09.467Z,54.06
2018-09-05T09:13:39.291Z,52.95
2018-09-05T09:16:08.947Z,52.37
2018-09-05T09:18:38.418Z,51.58
2018-09-05T09:21:07.883Z,52.00
2018-09-05T09:23:37.902Z,51.31
2018-09-05T09:26:10.037Z,52.22
2018-09-05T09:28:39.610Z,52.49
2018-09-05T09:31:09.010Z,51.52
2018-09-05T09:33:39.356Z,52.05
2018-09-05T09:36:12.088Z,50.38
2018-09-05T09:38:41.432Z,50.38
2018-09-05T09:41:10.921Z,49.90
2018-09-05T09:43:40.671Z,50.43
2018-09-05T09:46:10.576Z,50.04
2018-09-05T09:48:40.201Z,50.11
2018-09-05T09:51:09.645Z,49.65
2018-09-05T09:53:39.126Z,49.02
2018-09-05T09:56:09.564Z,48.00
2018-09-05T09:58:38.978Z,48.19
2018-09-05T10:01:13.485Z,47.43
2018-09-05T10:03:48.026Z,47.13
2018-09-05T10:06:20.629Z,46.66
2018-09-05T10:08:55.385Z,46.59
2018-09-05T10:11:30.047Z,45.77
2018-09-05T10:14:04.590Z,45.62
2018-09-05T10:16:39.129Z,44.72
2018-09-05T10:19:09.781Z,45.01
2018-09-05T10:21:39.713Z,45.37
2018-09-05T10:24:09.986Z,44.58
2018-09-05T10:26:39.355Z,45.31
2018-09-05T10:29:08.781Z,44.31
2018-09-05T10:31:38.290Z,44.58
2018-09-05T10:34:08.688Z,45.20
2018-09-05T10:36:38.070Z,43.46
2018-09-05T10:39:09.982Z,43.13
2018-09-05T10:41:41.113Z,42.64
2018-09-05T10:44:10.764Z,41.63
2018-09-05T10:46:41.656Z,41.23
2018-09-05T10:49:12.783Z,40.48
2018-09-05T10:51:47.429Z,39.20
2018-09-05T10:54:16.894Z,38.88
2018-09-05T10:56:46.388Z,39.00
2018-09-05T10:59:15.941Z,38.11
2018-09-05T11:01:45.321Z,36.91
2018-09-05T11:04:14.745Z,37.44
2018-09-05T11:06:44.366Z,36.75
2018-09-05T11:09:13.811Z,37.20
2018-09-05T11:11:44.297Z,36.47
2018-09-05T11:14:13.658Z,36.87
2018-09-05T11:16:43.177Z,37.01
2018-09-05T11:19:14.055Z,35.62
2018-09-05T11:21:43.444Z,35.71
2018-09-05T11:24:12.885Z,35.89
2018-09-05T11:26:42.269Z,35.04
2018-09-05T11:29:11.755Z,34.64
2018-09-05T11:31:41.133Z,35.08
2018-09-05T11:34:10.521Z,33.74
2018-09-05T11:36:39.885Z,34.58
2018-09-05T11:39:12.971Z,35.29
2018-09-05T11:41:42.338Z,35.07
2018-09-05T11:44:12.070Z,34.54
2018-09-05T11:46:41.474Z,33.57
2018-09-05T11:49:10.951Z,33.16
2018-09-05T11:51:40.595Z,33.60
2018-09-05T11:54:10.580Z,35.45
2018-09-05T11:56:41.376Z,33.21
2018-09-05T11:59:10.832Z,33.19
2018-09-05T12:01:40.198Z,32.27
2018-09-05T12:04:11.943Z,32.28
2018-09-05T12:06:41.660Z,32.51
2018-09-05T12:09:12.183Z,33.47
2018-09-05T12:11:41.610Z,31.72
2018-09-05T12:14:11.536Z,30.39
2018-09-05T12:16:40.991Z,30.56
2018-09-05T12:19:10.962Z,30.34
2018-09-05T12:21:40.333Z,28.88
2018-09-05T12:24:10.469Z,27.42
2018-09-05T12:26:41.096Z,26.30
2018-09-05T12:29:12.090Z,26.90
2018-09-05T12:31:42.382Z,25.71
2018-09-05T12:34:12.580Z,26.60
2018-09-05T12:36:42.110Z,25.70
2018-09-05T12:39:22.606Z,25.39
2018-09-05T12:41:52.274Z,24.60
2018-09-05T12:44:21.924Z,25.33
2018-09-05T12:46:51.383Z,24.32
2018-09-05T12:49:20.756Z,23.73
2018-09-05T12:51:50.222Z,22.99
2018-09-05T12:54:19.698Z,23.61
2018-09-05T12:56:49.042Z,23.49
2018-09-05T12:59:18.485Z,23.54
2018-09-05T13:01:48.067Z,23.76
2018-09-05T13:04:17.536Z,23.74
2018-09-05T13:06:47.203Z,23.10
2018-09-05T13:09:16.600Z,21.82
2018-09-05T13:11:47.351Z,22.25
2018-09-05T13:14:21.467Z,23.37
2018-09-05T13:16:50.925Z,23.74
2018-09-05T13:19:20.325Z,22.23
2018-09-05T13:21:49.711Z,22.21
2018-09-05T13:24:19.467Z,22.67
2018-09-05T13:26:49.092Z,22.80
2018-09-05T13:29:18.473Z,21.80
2018-09-05T13:31:47.881Z,21.42
2018-09-05T13:34:20.033Z,20.13
2018-09-05T13:36:49.540Z,19.83
2018-09-05T13:39:19.036Z,19.41
2018-09-05T13:41:49.514Z,19.30
2018-09-05T13:44:18.883Z,19.00
2018-09-05T13:46:48.323Z,19.60
2018-09-05T13:49:17.762Z,19.93
2018-09-05T13:51:52.291Z,19.35
2018-09-05T13:54:21.734Z,18.78
2018-09-05T13:56:52.301Z,19.32
2018-09-05T13:59:21.928Z,19.05
2018-09-05T14:01:51.969Z,18.82
2018-09-05T14:04:21.474Z,17.83
2018-09-05T14:06:50.907Z,18.03
2018-09-05T14:09:20.341Z,17.75
2018-09-05T14:11:49.843Z,16.77
2018-09-05T14:14:19.278Z,16.74
2018-09-05T14:16:48.746Z,17.26
2018-09-05T14:19:18.191Z,16.59
2018-09-05T14:21:48.220Z,16.32
2018-09-05T14:24:17.870Z,16.56
2018-09-05T14:26:47.330Z,16.41
2018-09-05T14:29:16.779Z,16.18
2018-09-05T14:31:46.185Z,16.66
2018-09-05T14:34:15.839Z,16.37
2018-09-05T14:36:45.306Z,16.99
2018-09-05T14:39:14.719Z,16.62
2018-09-05T14:41:44.172Z,16.96
2018-09-05T14:44:13.749Z,16.51
2018-09-05T14:46:43.319Z,15.97
2018-09-05T14:49:13.907Z,16.39
2018-09-05T14:51:43.346Z,16.37
2018-09-05T14:54:12.785Z,15.62
2018-09-05T14:56:45.003Z,15.86
2018-09-05T14:59:14.429Z,16.03
2018-09-05T15:01:43.859Z,16.08
2018-09-05T15:04:13.287Z,17.09
2018-09-05T15:06:49.288Z,16.91
2018-09-05T15:09:19.551Z,17.06
2018-09-05T15:11:49.607Z,16.27
2018-09-05T15:14:19.088Z,16.16
2018-09-05T15:16:48.578Z,16.25
2018-09-05T15:19:18.022Z,16.19
2018-09-05T15:21:47.465Z,16.12
2018-09-05T15:24:16.909Z,15.11
2018-09-05T15:26:46.284Z,15.73
2018-09-05T15:29:15.873Z,15.28
2018-09-05T15:31:45.292Z,15.33
2018-09-05T15:34:14.683Z,15.25
2018-09-05T15:36:44.075Z,15.32
2018-09-05T15:39:13.584Z,14.89
2018-09-05T15:41:42.977Z,15.30
2018-09-05T15:44:12.426Z,14.60
2018-09-05T15:46:42.485Z,14.51
2018-09-05T15:49:12.032Z,14.83
2018-09-05T15:51:41.398Z,14.79
2018-09-05T15:54:11.841Z,14.88
2018-09-05T15:56:41.579Z,14.73
2018-09-05T15:59:11.125Z,14.63
2018-09-05T16:01:40.607Z,14.85
2018-09-05T16:04:11.362Z,14.93
2018-09-05T16:06:40.814Z,14.69
2018-09-05T16:09:11.021Z,14.94
2018-09-05T16:11:40.677Z,16.07
2018-09-05T16:14:10.132Z,16.27
2018-09-05T16:16:39.660Z,16.75
2018-09-05T16:19:09.992Z,16.26
2018-09-05T16:21:39.373Z,16.62
2018-09-05T16:24:08.999Z,17.52
2018-09-05T16:26:38.814Z,18.42
2018-09-05T16:29:08.333Z,19.87
2018-09-05T16:31:38.427Z,21.03
2018-09-05T16:34:08.405Z,22.56
2018-09-05T16:36:37.904Z,22.71
2018-09-05T16:39:10.661Z,21.85
2018-09-05T16:41:40.668Z,20.96
2018-09-05T16:44:10.951Z,21.10
2018-09-05T16:46:40.598Z,21.11
2018-09-05T16:49:10.059Z,20.00
2018-09-05T16:51:39.518Z,19.96
2018-09-05T16:54:10.509Z,21.80
2018-09-05T16:56:40.021Z,23.99
2018-09-05T16:59:10.145Z,25.38
2018-09-05T17:01:39.834Z,27.95
2018-09-05T17:04:09.865Z,28.47
2018-09-05T17:06:40.265Z,31.16
2018-09-05T17:09:11.782Z,32.43
2018-09-05T17:11:41.694Z,33.38
2018-09-05T17:14:11.154Z,33.98
2018-09-05T17:16:43.053Z,35.12
2018-09-05T17:19:13.087Z,36.51
2018-09-05T17:21:42.514Z,36.06
2018-09-05T17:24:11.929Z,37.01
2018-09-05T17:26:41.295Z,37.67
2018-09-05T17:29:11.697Z,38.67
2018-09-05T17:31:41.142Z,39.60
2018-09-05T17:34:10.599Z,39.95
2018-09-05T17:36:40.030Z,39.80
2018-09-05T17:39:11.348Z,40.19
2018-09-05T17:41:53.198Z,40.84
2018-09-05T17:44:22.665Z,41.03
2018-09-05T17:46:52.133Z,41.94
2018-09-05T17:49:21.574Z,41.66
2018-09-05T17:51:50.957Z,42.46
2018-09-05T17:54:20.485Z,43.03
2018-09-05T17:56:50.874Z,43.42
2018-09-05T17:59:20.439Z,42.93
2018-09-05T18:01:51.464Z,43.00
2018-09-05T18:04:24.181Z,44.28
2018-09-05T18:06:53.588Z,44.51
2018-09-05T18:09:23.107Z,43.68
2018-09-05T18:11:52.963Z,44.50
2018-09-05T18:14:22.349Z,45.05
2018-09-05T18:16:51.785Z,44.64
2018-09-05T18:19:21.171Z,45.05
2018-09-05T18:21:50.720Z,45.73
2018-09-05T18:24:20.273Z,46.00
2018-09-05T18:26:49.601Z,46.16
2018-09-05T18:29:23.501Z,46.95
2018-09-05T18:31:53.269Z,47.37
2018-09-05T18:34:22.666Z,48.25
2018-09-05T18:36:52.142Z,48.50
2018-09-05T18:39:21.678Z,48.88
2018-09-05T18:41:51.130Z,50.84
2018-09-05T18:44:20.817Z,50.06
2018-09-05T18:46:50.781Z,50.89
2018-09-05T18:49:20.684Z,50.67
2018-09-05T18:51:50.120Z,51.05
2018-09-05T18:54:19.626Z,52.05
2018-09-05T18:56:49.042Z,52.52
2018-09-05T18:59:58.012Z,52.62
2018-09-05T19:02:27.633Z,53.93
2018-09-05T19:04:57.333Z,53.88
2018-09-05T19:07:26.942Z,54.02
2018-09-05T19:12:38.816Z,53.64
2018-09-05T19:15:08.545Z,53.21
2018-09-05T19:17:38.279Z,53.11
2018-09-05T19:20:08.948Z,53.36
2018-09-05T19:22:39.411Z,52.69
2018-09-05T19:25:09.246Z,52.97
2018-09-05T19:27:38.864Z,52.48
2018-09-05T19:30:08.618Z,53.37
2018-09-05T19:32:38.851Z,52.36
2018-09-05T19:35:08.891Z,52.98
2018-09-05T19:37:38.756Z,53.00
2018-09-05T19:40:08.285Z,52.48
2018-09-05T19:42:38.248Z,52.58
2018-09-05T19:45:07.960Z,53.10
2018-09-05T19:47:37.357Z,52.72
2018-09-05T19:50:07.147Z,53.14
2018-09-05T19:52:36.756Z,53.62
2018-09-05T19:55:06.576Z,53.31
2018-09-05T19:57:35.950Z,53.62
2018-09-05T20:00:06.453Z,54.25
2018-09-05T20:02:35.869Z,54.75
2018-09-05T20:05:05.538Z,54.31
2018-09-05T20:07:35.151Z,54.44
2018-09-05T20:10:04.534Z,54.53
2018-09-05T20:12:33.922Z,54.53
2018-09-05T20:15:03.296Z,54.31
2018-09-05T20:17:32.642Z,54.55
2018-09-05T20:20:01.997Z,54.92
2018-09-05T20:22:31.362Z,55.46
2018-09-05T20:25:00.713Z,54.54
2018-09-05T20:27:30.082Z,55.34
2018-09-05T20:29:59.413Z,54.69
2018-09-05T20:32:28.780Z,54.96
2018-09-05T20:34:58.118Z,55.31
2018-09-05T20:37:28.014Z,55.25
2018-09-05T20:39:57.345Z,56.08
2018-09-05T20:42:27.792Z,56.45
2018-09-05T20:44:57.444Z,56.16
2018-09-05T20:47:26.800Z,55.81
2018-09-05T20:49:56.178Z,56.05
2018-09-05T20:52:25.520Z,55.96
2018-09-05T20:54:54.865Z,56.50
2018-09-05T20:57:24.185Z,56.54
2018-09-05T20:59:53.629Z,57.51
2018-09-05T21:02:22.994Z,56.97
2018-09-05T21:04:52.393Z,56.80
2018-09-05T21:07:21.905Z,57.01
2018-09-05T21:09:51.248Z,57.70
2018-09-05T21:12:20.601Z,57.27
2018-09-05T21:14:49.947Z,57.97
2018-09-05T21:17:19.526Z,58.49
2018-09-05T21:19:50.030Z,58.43
2018-09-05T21:22:19.671Z,57.91
2018-09-05T21:24:49.496Z,58.40
2018-09-05T21:27:19.156Z,58.60
2018-09-05T21:29:48.787Z,58.52
2018-09-05T21:32:18.147Z,58.19
2018-09-05T21:34:47.484Z,58.31
2018-09-05T21:37:16.818Z,58.02
2018-09-05T21:39:46.314Z,57.62
2018-09-05T21:42:15.657Z,58.70
2018-09-05T21:44:44.981Z,58.49
2018-09-05T21:47:14.514Z,58.54
2018-09-05T21:49:44.051Z,58.30
2018-09-05T21:52:13.523Z,58.26
2018-09-05T21:54:42.870Z,58.71
2018-09-05T21:57:12.221Z,58.65
2018-09-05T21:59:41.575Z,58.81
2018-09-05T22:02:10.897Z,59.63
2018-09-05T22:04:40.294Z,59.56
2018-09-05T22:07:09.662Z,59.33
2018-09-05T22:09:38.985Z,59.06
2018-09-05T22:12:08.470Z,59.05
2018-09-05T22:14:37.804Z,59.72
2018-09-05T22:17:07.265Z,58.77
2018-09-05T22:19:36.587Z,60.24
2018-09-05T22:22:06.381Z,60.08
2018-09-05T22:24:35.729Z,59.79
2018-09-05T22:27:05.995Z,59.65
2018-09-05T22:29:35.315Z,60.78
2018-09-05T22:37:12.150Z,60.19
2018-09-05T22:39:41.480Z,61.38
2018-09-05T22:42:12.979Z,61.62
2018-09-05T22:44:59.170Z,61.97
2018-09-05T22:48:47.715Z,62.18
2018-09-05T22:52:13.010Z,62.32
2018-09-05T22:57:24.461Z,62.64
2018-09-05T23:00:11.287Z,62.92
2018-09-05T23:03:27.393Z,63.26
2018-09-05T23:08:38.627Z,63.67
2018-09-05T23:13:32.719Z,64.46
2018-09-05T23:16:22.334Z,65.05
2018-09-05T23:19:45.130Z,65.07
2018-09-05T23:22:23.049Z,64.85
2018-09-05T23:25:00.524Z,64.85
2018-09-05T23:27:38.888Z,65.65
2018-09-05T23:30:12.917Z,65.45
2018-09-05T23:32:50.656Z,65.29
2018-09-05T23:35:28.295Z,65.70
2018-09-05T23:38:07.531Z,65.18
2018-09-05T23:40:46.294Z,65.73
2018-09-05T23:43:24.951Z,66.10
2018-09-05T23:46:02.669Z,65.71
2018-09-05T23:48:41.256Z,65.12
2018-09-05T23:51:18.728Z,66.31
2018-09-05T23:53:56.829Z,66.73
2018-09-05T23:56:36.777Z,66.22
2018-09-05T23:59:13.586Z,66.43
